createdAt,value
2023-03-20T00:00:27.624Z,38.47
2023-03-20T00:03:13.887Z,38.73
2023-03-20T00:05:59.091Z,38.70
2023-03-20T00:08:46.040Z,38.80
2023-03-20T00:11:34.396Z,35.53
2023-03-20T00:14:21.919Z,34.63
2023-03-20T00:17:13.680Z,34.27
2023-03-20T00:19:59.145Z,35.58
2023-03-20T00:22:44.173Z,30.27
2023-03-20T00:25:29.564Z,29.45
2023-03-20T00:28:39.259Z,35.70
2023-03-20T00:31:42.512Z,32.63
2023-03-20T00:34:28.936Z,33.50
2023-03-20T00:37:14.186Z,35.10
2023-03-20T00:39:59.717Z,37.70
2023-03-20T00:42:49.222Z,40.93
2023-03-20T00:45:35.799Z,33.77
2023-03-20T00:48:21.302Z,36.97
2023-03-20T00:51:06.880Z,34.28
2023-03-20T00:53:52.318Z,35.77
2023-03-20T00:56:44.302Z,37.13
2023-03-20T00:59:55.056Z,34.57
2023-03-20T01:02:40.334Z,34.03
2023-03-20T01:05:26.993Z,34.17
2023-03-20T01:08:14.803Z,31.87
2023-03-20T01:11:00.175Z,33.85
2023-03-20T01:13:45.255Z,34.50
2023-03-20T01:16:30.890Z,34.00
2023-03-20T01:19:16.152Z,33.77
2023-03-20T01:22:01.183Z,36.47
2023-03-20T01:24:47.323Z,34.77
2023-03-20T01:27:32.340Z,36.43
2023-03-20T01:30:24.776Z,33.37
2023-03-20T01:33:21.045Z,34.90
2023-03-20T01:36:06.582Z,33.17
2023-03-20T01:38:57.865Z,34.10
2023-03-20T01:41:43.134Z,32.97
2023-03-20T01:44:31.082Z,31.13
2023-03-20T01:47:22.299Z,32.90
2023-03-20T01:50:22.339Z,33.30
2023-03-20T01:53:13.461Z,35.17
2023-03-20T01:56:00.211Z,32.53
2023-03-20T01:58:58.249Z,32.83
2023-03-20T02:01:44.925Z,32.93
2023-03-20T02:04:38.627Z,33.43
2023-03-20T02:07:24.519Z,34.97
2023-03-20T02:10:15.588Z,32.10
2023-03-20T02:13:03.092Z,32.63
2023-03-20T02:15:59.799Z,32.20
2023-03-20T02:18:48.042Z,32.63
2023-03-20T02:21:55.170Z,32.15
2023-03-20T02:25:08.855Z,33.63
2023-03-20T02:28:21.779Z,33.73
2023-03-20T02:31:25.767Z,33.00
2023-03-20T02:34:50.949Z,34.93
2023-03-20T02:37:45.506Z,35.53
2023-03-20T02:40:39.638Z,36.73
2023-03-20T02:43:52.843Z,39.53
2023-03-20T02:46:56.303Z,37.83
2023-03-20T02:49:53.864Z,39.33
2023-03-20T02:52:44.195Z,39.10
2023-03-20T02:55:39.778Z,41.20
2023-03-20T02:58:46.174Z,38.70
2023-03-20T03:01:41.208Z,41.53
2023-03-20T03:04:32.219Z,44.47
2023-03-20T03:07:20.529Z,40.97
2023-03-20T03:10:11.463Z,43.70
2023-03-20T03:13:00.773Z,43.77
2023-03-20T03:15:50.963Z,43.87
2023-03-20T03:18:39.491Z,47.83
2023-03-20T03:21:26.657Z,43.97
2023-03-20T03:24:40.770Z,44.87
2023-03-20T03:27:37.119Z,45.30
2023-03-20T03:30:28.681Z,45.77
2023-03-20T03:33:21.410Z,44.53
2023-03-20T03:36:34.332Z,43.37
2023-03-20T03:39:28.836Z,42.13
2023-03-20T03:42:26.450Z,43.83
2023-03-20T03:45:32.661Z,43.30
2023-03-20T03:48:31.468Z,39.20
2023-03-20T03:51:22.443Z,39.73
2023-03-20T03:54:19.711Z,39.70
2023-03-20T03:57:07.140Z,37.70
2023-03-20T03:59:53.949Z,37.93
2023-03-20T04:02:39.421Z,39.27
2023-03-20T04:05:30.342Z,40.03
2023-03-20T04:08:15.265Z,39.40
2023-03-20T04:11:00.921Z,39.47
2023-03-20T04:13:48.599Z,39.27
2023-03-20T04:16:33.765Z,39.57
2023-03-20T04:19:19.140Z,40.97
2023-03-20T04:22:04.433Z,37.50
2023-03-20T04:24:49.495Z,39.83
2023-03-20T04:27:34.956Z,41.37
2023-03-20T04:30:20.102Z,39.17
2023-03-20T04:33:05.372Z,41.17
2023-03-20T04:35:50.831Z,40.27
2023-03-20T04:38:36.628Z,40.40
2023-03-20T04:41:21.977Z,39.33
2023-03-20T04:44:07.428Z,40.63
2023-03-20T04:46:52.993Z,40.93
2023-03-20T04:49:38.033Z,38.53
2023-03-20T04:52:22.973Z,37.47
2023-03-20T04:55:08.527Z,39.23
2023-03-20T04:57:53.873Z,39.70
2023-03-20T05:00:38.605Z,38.70
2023-03-20T05:03:24.355Z,38.60
2023-03-20T05:06:09.828Z,38.80
2023-03-20T05:08:55.629Z,38.20
2023-03-20T05:11:40.569Z,37.80
2023-03-20T05:14:25.713Z,39.57
2023-03-20T05:17:11.141Z,37.53
2023-03-20T05:19:56.537Z,37.23
2023-03-20T05:22:41.343Z,36.60
2023-03-20T05:25:26.869Z,37.07
2023-03-20T05:28:11.826Z,37.03
2023-03-20T05:30:57.461Z,34.50
2023-03-20T05:33:43.445Z,36.13
2023-03-20T05:36:28.766Z,36.17
2023-03-20T05:39:14.308Z,37.37
2023-03-20T05:41:59.775Z,36.17
2023-03-20T05:44:44.742Z,34.27
2023-03-20T05:47:29.553Z,34.70
2023-03-20T05:50:15.272Z,34.63
2023-03-20T05:53:00.300Z,35.50
2023-03-20T05:55:45.323Z,36.37
2023-03-20T05:58:30.473Z,35.17
2023-03-20T06:01:15.784Z,36.60
2023-03-20T06:04:01.276Z,36.83
2023-03-20T06:06:46.643Z,37.87
2023-03-20T06:09:32.139Z,35.43
2023-03-20T06:12:16.964Z,38.13
2023-03-20T06:15:02.622Z,36.10
2023-03-20T06:17:47.812Z,37.43
2023-03-20T06:20:33.264Z,35.53
2023-03-20T06:23:18.636Z,35.43
2023-03-20T06:26:03.979Z,36.67
2023-03-20T06:28:49.286Z,36.13
2023-03-20T06:31:34.566Z,36.47
2023-03-20T06:34:19.883Z,36.10
2023-03-20T06:37:05.576Z,37.30
2023-03-20T06:39:50.903Z,37.90
2023-03-20T06:42:36.262Z,37.13
2023-03-20T06:45:22.891Z,35.77
2023-03-20T06:48:09.327Z,35.17
2023-03-20T06:50:54.340Z,33.33
2023-03-20T06:53:39.332Z,34.10
2023-03-20T06:56:24.803Z,30.93
2023-03-20T06:59:10.091Z,28.37
2023-03-20T07:01:55.509Z,25.23
2023-03-20T07:04:41.225Z,25.97
2023-03-20T07:07:26.499Z,25.73
2023-03-20T07:10:11.693Z,24.57
2023-03-20T07:12:57.101Z,25.97
2023-03-20T07:15:57.555Z,23.70
2023-03-20T07:18:51.076Z,22.23
2023-03-20T07:21:36.767Z,21.73
2023-03-20T07:24:22.006Z,18.53
2023-03-20T07:27:07.414Z,20.53
2023-03-20T07:29:52.714Z,19.43
2023-03-20T07:32:38.158Z,19.47
2023-03-20T07:35:23.190Z,18.43
2023-03-20T07:38:08.687Z,16.57
2023-03-20T07:40:54.358Z,16.33
2023-03-20T07:43:39.524Z,15.67
2023-03-20T07:46:24.512Z,14.60
2023-03-20T07:49:09.914Z,15.00
2023-03-20T07:51:55.036Z,16.70
2023-03-20T07:54:40.603Z,16.40
2023-03-20T07:57:25.955Z,16.03
2023-03-20T08:00:11.439Z,17.13
2023-03-20T08:02:57.207Z,16.83
2023-03-20T08:05:45.850Z,17.90
2023-03-20T08:08:32.577Z,19.73
2023-03-20T08:11:19.330Z,21.67
2023-03-20T08:14:04.352Z,22.27
2023-03-20T08:16:59.245Z,22.53
2023-03-20T08:19:51.510Z,22.90
2023-03-20T08:22:36.432Z,21.80
2023-03-20T08:25:21.362Z,22.53
2023-03-20T08:28:06.352Z,23.30
2023-03-20T08:30:52.205Z,18.33
2023-03-20T08:33:37.820Z,21.97
2023-03-20T08:36:23.874Z,22.63
2023-03-20T08:39:09.356Z,22.80
2023-03-20T08:41:54.454Z,22.23
2023-03-20T08:44:39.785Z,21.80
2023-03-20T08:47:25.035Z,21.03
2023-03-20T08:50:11.234Z,20.23
2023-03-20T08:52:56.538Z,20.57
2023-03-20T08:55:50.941Z,20.57
2023-03-20T08:58:36.283Z,22.73
2023-03-20T09:01:22.053Z,21.53
2023-03-20T09:04:07.141Z,22.63
2023-03-20T09:06:52.539Z,22.23
2023-03-20T09:09:37.408Z,24.47
2023-03-20T09:12:22.787Z,21.50
2023-03-20T09:15:08.209Z,22.73
2023-03-20T09:17:53.098Z,21.47
2023-03-20T09:20:38.675Z,19.43
2023-03-20T09:23:24.101Z,20.60
2023-03-20T09:26:09.482Z,19.80
2023-03-20T09:28:54.854Z,20.33
2023-03-20T09:31:39.973Z,19.07
2023-03-20T09:34:25.140Z,17.07
2023-03-20T09:37:10.089Z,17.87
2023-03-20T09:39:55.445Z,17.10
2023-03-20T09:43:33.094Z,18.33
2023-03-20T09:46:53.373Z,14.93
2023-03-20T09:49:47.489Z,15.53
2023-03-20T09:52:38.456Z,15.57
2023-03-20T09:55:32.746Z,15.50
2023-03-20T09:58:26.422Z,15.43
2023-03-20T10:01:14.010Z,13.30
2023-03-20T10:04:08.837Z,12.67
2023-03-20T10:06:54.981Z,13.03
2023-03-20T10:09:40.291Z,14.07
2023-03-20T10:12:53.394Z,11.43
2023-03-20T10:16:05.435Z,11.13
2023-03-20T10:19:29.458Z,10.90
2023-03-20T10:22:22.237Z,10.20
2023-03-20T10:25:22.172Z,10.23
2023-03-20T10:28:20.606Z,10.53
2023-03-20T10:31:14.141Z,10.53
2023-03-20T10:34:17.604Z,11.07
2023-03-20T10:37:30.749Z,11.70
2023-03-20T10:40:37.422Z,12.10
2023-03-20T10:43:38.161Z,18.97
2023-03-20T10:46:33.209Z,11.10
2023-03-20T10:49:31.683Z,12.60
2023-03-20T10:52:20.597Z,12.30
2023-03-20T10:55:21.901Z,12.80
2023-03-20T10:58:19.527Z,12.93
2023-03-20T11:01:05.347Z,13.07
2023-03-20T11:03:50.517Z,12.53
2023-03-20T11:06:43.823Z,13.97
2023-03-20T11:09:28.855Z,13.60
2023-03-20T11:12:20.299Z,14.63
2023-03-20T11:15:24.405Z,13.73
2023-03-20T11:18:16.742Z,14.03
2023-03-20T11:21:05.068Z,13.37
2023-03-20T11:23:51.340Z,12.73
2023-03-20T11:26:40.252Z,11.53
2023-03-20T11:29:33.167Z,10.67
2023-03-20T11:32:31.800Z,11.37
2023-03-20T11:35:17.410Z,12.47
2023-03-20T11:38:30.613Z,12.20
2023-03-20T11:41:34.276Z,9.63
2023-03-20T11:44:34.105Z,9.07
2023-03-20T11:47:25.211Z,8.47
2023-03-20T11:50:38.080Z,8.17
2023-03-20T11:53:28.269Z,8.30
2023-03-20T11:56:20.730Z,8.10
2023-03-20T11:59:16.547Z,8.80
2023-03-20T12:02:05.489Z,8.13
2023-03-20T12:04:50.530Z,7.78
2023-03-20T12:07:37.992Z,6.80
2023-03-20T12:10:30.658Z,6.82
2023-03-20T12:13:25.915Z,6.30
2023-03-20T12:16:15.611Z,7.43
2023-03-20T12:19:09.399Z,8.35
2023-03-20T12:22:21.149Z,7.90
2023-03-20T12:25:26.444Z,8.07
2023-03-20T12:28:18.021Z,8.40
2023-03-20T12:31:30.463Z,8.33
2023-03-20T12:34:32.926Z,8.47
2023-03-20T12:37:18.453Z,8.80
2023-03-20T12:40:04.233Z,9.23
2023-03-20T12:42:58.943Z,9.32
2023-03-20T12:45:58.874Z,9.75
2023-03-20T12:48:50.953Z,10.03
2023-03-20T12:51:42.391Z,9.70
2023-03-20T12:54:44.061Z,10.70
2023-03-20T12:57:41.786Z,10.20
2023-03-20T13:00:34.922Z,10.17
2023-03-20T13:03:31.718Z,11.03
2023-03-20T13:06:41.570Z,11.37
2023-03-20T13:09:50.822Z,11.20
2023-03-20T13:12:46.286Z,10.70
2023-03-20T13:15:49.963Z,11.10
2023-03-20T13:19:00.335Z,10.47
2023-03-20T13:22:05.177Z,11.10
2023-03-20T13:25:00.721Z,10.70
2023-03-20T13:27:53.478Z,9.87
2023-03-20T13:31:02.570Z,8.60
2023-03-20T13:40:28.772Z,6.50
2023-03-20T13:43:40.044Z,6.90
2023-03-20T13:46:29.086Z,6.80
2023-03-20T13:52:04.287Z,7.27
2023-03-20T13:55:15.561Z,6.57
2023-03-20T13:58:19.080Z,6.50
2023-03-20T14:01:26.210Z,7.40
2023-03-20T14:04:17.895Z,6.47
2023-03-20T14:07:34.016Z,5.80
2023-03-20T14:10:23.163Z,6.50
2023-03-20T14:13:15.052Z,6.40
2023-03-20T14:16:09.849Z,6.20
2023-03-20T14:19:16.988Z,6.70
2023-03-20T14:22:01.973Z,7.07
2023-03-20T14:24:54.745Z,8.03
2023-03-20T14:28:06.572Z,7.20
2023-03-20T14:31:12.370Z,7.70
2023-03-20T14:34:08.491Z,8.80
2023-03-20T14:37:02.902Z,7.90
2023-03-20T14:40:03.323Z,8.43
2023-03-20T14:45:47.277Z,8.80
2023-03-20T14:48:41.258Z,8.63
2023-03-20T14:51:43.730Z,9.23
2023-03-20T14:54:30.306Z,8.40
2023-03-20T14:57:55.659Z,8.57
2023-03-20T15:00:46.629Z,8.07
2023-03-20T15:03:32.002Z,7.57
2023-03-20T15:06:20.950Z,7.60
2023-03-20T15:09:10.341Z,7.70
2023-03-20T15:11:57.670Z,44.63
2023-03-20T15:14:59.367Z,8.13
2023-03-20T15:17:45.936Z,8.00
2023-03-20T15:20:31.154Z,7.70
2023-03-20T15:23:16.024Z,6.97
2023-03-20T15:26:01.196Z,6.77
2023-03-20T15:28:47.168Z,6.40
2023-03-20T15:31:38.476Z,5.20
2023-03-20T15:34:27.772Z,5.30
2023-03-20T15:37:15.895Z,5.67
2023-03-20T15:40:11.334Z,5.77
2023-03-20T15:43:03.113Z,5.40
2023-03-20T15:45:48.048Z,6.43
2023-03-20T15:48:33.484Z,6.20
2023-03-20T15:51:27.603Z,5.87
2023-03-20T15:54:17.874Z,6.20
2023-03-20T15:57:03.977Z,5.90
2023-03-20T15:59:49.334Z,5.90
2023-03-20T16:02:36.960Z,5.67
2023-03-20T16:05:26.081Z,5.83
2023-03-20T16:08:22.318Z,5.80
2023-03-20T16:11:15.985Z,6.63
2023-03-20T16:14:01.516Z,6.43
2023-03-20T16:16:49.454Z,6.50
2023-03-20T16:19:34.802Z,6.30
2023-03-20T16:22:31.251Z,6.37
2023-03-20T16:25:18.422Z,6.57
2023-03-20T16:28:05.315Z,7.17
2023-03-20T16:30:50.876Z,7.37
2023-03-20T16:33:38.981Z,8.50
2023-03-20T16:36:33.742Z,8.50
2023-03-20T16:39:21.934Z,8.67
2023-03-20T16:42:22.601Z,9.60
2023-03-20T16:45:35.922Z,10.37
2023-03-20T16:48:41.946Z,10.30
2023-03-20T16:51:30.140Z,11.27
2023-03-20T16:54:20.362Z,10.77
2023-03-20T16:57:17.772Z,11.10
2023-03-20T17:00:48.498Z,12.10
2023-03-20T17:03:53.258Z,12.97
2023-03-20T17:06:46.016Z,13.67
2023-03-20T17:09:31.712Z,12.90
2023-03-20T17:12:18.482Z,13.60
2023-03-20T17:15:03.991Z,14.07
2023-03-20T17:17:49.190Z,15.20
2023-03-20T17:20:34.750Z,14.83
2023-03-20T17:23:22.388Z,14.37
2023-03-20T17:26:11.483Z,14.67
2023-03-20T17:28:56.865Z,14.97
2023-03-20T17:31:42.115Z,15.17
2023-03-20T17:34:27.430Z,15.23
2023-03-20T17:37:17.217Z,15.50
2023-03-20T17:40:03.137Z,16.07
2023-03-20T17:42:48.649Z,15.73
2023-03-20T17:45:33.867Z,16.80
2023-03-20T17:48:21.071Z,15.87
2023-03-20T17:51:07.897Z,15.93
2023-03-20T17:53:53.367Z,15.27
2023-03-20T17:56:38.220Z,15.77
2023-03-20T17:59:23.513Z,14.87
2023-03-20T18:02:08.940Z,15.40
2023-03-20T18:04:54.030Z,14.47
2023-03-20T18:07:39.427Z,15.10
2023-03-20T18:10:28.485Z,14.63
2023-03-20T18:13:13.801Z,13.93
2023-03-20T18:15:59.250Z,14.63
2023-03-20T18:18:44.625Z,14.00
2023-03-20T18:21:30.162Z,13.63
2023-03-20T18:24:17.338Z,12.40
2023-03-20T18:27:02.648Z,12.70
2023-03-20T18:29:47.938Z,12.20
2023-03-20T18:32:33.166Z,13.00
2023-03-20T18:35:18.700Z,12.30
2023-03-20T18:38:04.423Z,11.60
2023-03-20T18:40:49.580Z,11.17
2023-03-20T18:43:34.653Z,11.67
2023-03-20T18:46:22.208Z,11.83
2023-03-20T18:49:15.837Z,11.63
2023-03-20T18:52:00.694Z,10.60
2023-03-20T18:54:45.625Z,11.13
2023-03-20T18:57:30.995Z,10.60
2023-03-20T19:00:24.743Z,11.47
2023-03-20T19:03:11.225Z,10.77
2023-03-20T19:05:58.334Z,11.43
2023-03-20T19:08:45.176Z,11.37
2023-03-20T19:11:30.331Z,12.10
2023-03-20T19:14:18.911Z,14.27
2023-03-20T19:17:04.166Z,12.47
2023-03-20T19:19:49.110Z,11.83
2023-03-20T19:22:34.160Z,13.10
2023-03-20T19:25:19.035Z,12.97
2023-03-20T19:28:05.660Z,14.80
2023-03-20T19:30:54.075Z,13.07
2023-03-20T19:33:45.644Z,14.50
2023-03-20T19:36:33.818Z,14.47
2023-03-20T19:39:20.727Z,14.47
2023-03-20T19:42:19.882Z,14.87
2023-03-20T19:45:11.450Z,14.53
2023-03-20T19:47:57.384Z,13.93
2023-03-20T19:50:51.182Z,15.27
2023-03-20T19:53:37.551Z,15.27
2023-03-20T19:56:23.681Z,15.23
2023-03-20T19:59:08.653Z,15.93
2023-03-20T20:01:56.654Z,15.47
2023-03-20T20:04:43.740Z,15.73
2023-03-20T20:08:09.044Z,15.93
2023-03-20T20:10:54.663Z,15.33
2023-03-20T20:14:03.788Z,16.77
2023-03-20T20:16:47.605Z,16.17
2023-03-20T20:19:35.834Z,16.43
2023-03-20T20:22:26.168Z,17.77
2023-03-20T20:25:13.721Z,16.37
2023-03-20T20:27:58.696Z,17.67
2023-03-20T20:30:49.511Z,17.67
2023-03-20T20:33:34.761Z,16.87
2023-03-20T20:37:08.021Z,17.63
2023-03-20T20:39:25.666Z,17.33
2023-03-20T20:42:11.046Z,17.73
2023-03-20T20:44:56.691Z,17.70
2023-03-20T20:47:44.061Z,18.43
2023-03-20T20:50:31.363Z,17.87
2023-03-20T20:53:16.402Z,17.13
2023-03-20T20:56:01.724Z,16.13
2023-03-20T20:58:46.780Z,16.50
2023-03-20T21:01:32.219Z,15.03
2023-03-20T21:04:23.575Z,14.37
2023-03-20T21:07:13.442Z,12.97
2023-03-20T21:09:58.890Z,13.90
2023-03-20T21:12:58.042Z,12.63
2023-03-20T21:15:44.446Z,13.27
2023-03-20T21:18:30.179Z,12.50
2023-03-20T21:21:15.936Z,13.50
2023-03-20T21:24:01.853Z,12.67
2023-03-20T21:26:46.927Z,12.57
2023-03-20T21:29:32.515Z,12.47
2023-03-20T21:32:20.538Z,12.07
2023-03-20T21:35:06.450Z,10.83
2023-03-20T21:40:56.782Z,10.87
2023-03-20T21:43:47.876Z,11.70
2023-03-20T21:50:31.147Z,10.57
2023-03-20T21:53:40.328Z,10.90
2023-03-20T21:56:53.936Z,11.53
2023-03-20T21:59:50.440Z,11.73
2023-03-20T22:02:12.278Z,12.17
2023-03-20T22:05:48.391Z,11.90
2023-03-20T22:12:01.665Z,11.33
2023-03-20T22:27:34.935Z,11.57
2023-03-20T22:33:58.437Z,12.17
2023-03-20T22:36:46.847Z,10.93
2023-03-20T22:42:48.972Z,12.20
2023-03-20T22:45:19.657Z,11.67
2023-03-20T22:48:12.837Z,11.43
2023-03-20T22:50:58.506Z,11.30
2023-03-20T22:53:43.569Z,11.63
2023-03-20T22:56:28.924Z,10.33
2023-03-20T22:59:14.216Z,10.93
2023-03-20T23:01:59.645Z,11.43
2023-03-20T23:04:47.508Z,10.93
2023-03-20T23:07:32.485Z,10.90
2023-03-20T23:10:18.030Z,11.20
2023-03-20T23:13:03.490Z,10.60
2023-03-20T23:15:49.643Z,10.23
2023-03-20T23:18:34.936Z,10.50
2023-03-20T23:21:19.789Z,11.27
2023-03-20T23:24:05.531Z,10.33
2023-03-20T23:26:50.698Z,10.97
2023-03-20T23:29:36.054Z,10.83
2023-03-20T23:32:21.502Z,9.83
2023-03-20T23:35:08.299Z,10.97
2023-03-20T23:37:53.763Z,10.93
2023-03-20T23:40:39.598Z,10.10
2023-03-20T23:43:25.098Z,11.60
2023-03-20T23:46:10.668Z,11.20
2023-03-20T23:48:55.756Z,10.57
2023-03-20T23:51:40.794Z,10.67
2023-03-20T23:54:25.856Z,10.73
2023-03-20T23:57:10.888Z,10.83
2023-03-20T23:59:56.297Z,11.10
